createdAt,value
2022-12-01T00:02:07.915Z,99463.69
2022-12-01T00:04:35.866Z,99459.94
2022-12-01T00:07:03.979Z,99463.28
2022-12-01T00:09:49.581Z,99459.00
2022-12-01T00:12:18.002Z,99456.88
2022-12-01T00:14:54.812Z,99458.13
2022-12-01T00:17:22.125Z,99459.19
2022-12-01T00:19:49.198Z,99459.34
2022-12-01T00:22:16.359Z,99472.03
2022-12-01T00:24:43.377Z,99459.19
2022-12-01T00:27:10.272Z,99464.91
2022-12-01T00:29:38.843Z,99467.72
2022-12-01T00:32:06.218Z,99461.88
2022-12-01T00:34:33.280Z,99464.56
2022-12-01T00:37:00.759Z,99456.00
2022-12-01T00:39:27.908Z,99453.44
2022-12-01T00:41:54.850Z,99448.66
2022-12-01T00:44:21.896Z,99448.38
2022-12-01T00:46:50.241Z,99443.03
2022-12-01T00:49:17.288Z,99444.88
2022-12-01T00:51:44.362Z,99451.59
2022-12-01T00:54:11.319Z,99438.25
2022-12-01T00:56:38.218Z,99442.25
2022-12-01T00:59:05.123Z,99443.34
2022-12-01T01:01:32.121Z,99446.00
2022-12-01T01:04:00.521Z,99450.56
2022-12-01T01:06:27.464Z,99449.78
2022-12-01T01:08:54.417Z,99452.19
2022-12-01T01:11:21.370Z,99448.69
2022-12-01T01:13:48.308Z,99450.81
2022-12-01T01:16:17.185Z,99446.53
2022-12-01T01:18:44.569Z,99450.00
2022-12-01T01:21:14.841Z,99452.69
2022-12-01T01:23:42.130Z,99449.47
2022-12-01T01:26:11.965Z,99447.38
2022-12-01T01:28:41.634Z,99446.44
2022-12-01T01:31:10.172Z,99445.88
2022-12-01T01:33:37.539Z,99444.28
2022-12-01T01:36:05.157Z,99440.31
2022-12-01T01:38:34.508Z,99446.47
2022-12-01T01:41:02.027Z,99438.03
2022-12-01T01:43:44.096Z,99442.03
2022-12-01T01:46:12.676Z,99433.91
2022-12-01T01:48:42.056Z,99430.44
2022-12-01T01:51:10.481Z,99439.91
2022-12-01T01:53:39.088Z,99430.69
2022-12-01T01:56:07.464Z,99430.56
2022-12-01T01:58:36.313Z,99436.44
2022-12-01T02:01:03.410Z,99440.84
2022-12-01T02:03:31.536Z,99433.91
2022-12-01T02:06:04.534Z,99439.63
2022-12-01T02:08:34.394Z,99437.22
2022-12-01T02:11:18.264Z,99448.59
2022-12-01T02:13:53.928Z,99446.75
2022-12-01T02:16:32.373Z,99437.81
2022-12-01T02:19:13.963Z,99433.78
2022-12-01T02:21:58.295Z,99432.47
2022-12-01T02:25:07.888Z,99439.56
2022-12-01T02:28:10.990Z,99434.63
2022-12-01T02:30:42.153Z,99430.47
2022-12-01T02:33:17.880Z,99434.63
2022-12-01T02:35:50.384Z,99414.47
2022-12-01T02:38:25.877Z,99413.78
2022-12-01T02:40:58.787Z,99413.66
2022-12-01T02:43:31.852Z,99416.19
2022-12-01T02:46:07.237Z,99413.78
2022-12-01T02:48:35.329Z,99402.88
2022-12-01T02:51:08.584Z,99405.00
2022-12-01T02:53:36.156Z,99399.28
2022-12-01T02:56:07.876Z,99410.47
2022-12-01T02:58:34.817Z,99396.34
2022-12-01T03:01:28.184Z,99397.28
2022-12-01T03:04:02.694Z,99395.84
2022-12-01T03:06:41.509Z,99404.34
2022-12-01T03:09:17.284Z,99396.09
2022-12-01T03:11:51.492Z,99393.03
2022-12-01T03:14:29.325Z,99396.88
2022-12-01T03:17:01.884Z,99394.34
2022-12-01T03:19:36.264Z,99394.34
2022-12-01T03:22:09.904Z,99393.81
2022-12-01T03:24:38.971Z,99392.22
2022-12-01T03:27:06.744Z,99394.75
2022-12-01T03:29:38.717Z,99397.16
2022-12-01T03:32:12.738Z,99393.53
2022-12-01T03:34:44.015Z,99394.22
2022-12-01T03:37:18.138Z,99392.47
2022-12-01T03:39:47.992Z,99388.19
2022-12-01T03:42:20.301Z,99391.69
2022-12-01T03:44:50.664Z,99388.47
2022-12-01T03:47:21.561Z,99392.88
2022-12-01T03:49:51.847Z,99398.88
2022-12-01T03:52:29.148Z,99396.34
2022-12-01T03:55:07.903Z,99389.97
2022-12-01T03:57:41.473Z,99405.03
2022-12-01T04:00:11.497Z,99409.03
2022-12-01T04:02:44.958Z,99420.91
2022-12-01T04:05:12.576Z,99419.03
2022-12-01T04:07:40.320Z,99409.69
2022-12-01T04:10:08.364Z,99412.25
2022-12-01T04:12:35.523Z,99416.63
2022-12-01T04:15:04.635Z,99414.09
2022-12-01T04:17:32.241Z,99417.94
2022-12-01T04:20:00.925Z,99423.69
2022-12-01T04:22:27.951Z,99418.34
2022-12-01T04:24:54.978Z,99409.00
2022-12-01T04:27:22.096Z,99409.81
2022-12-01T04:29:49.425Z,99408.34
2022-12-01T04:32:16.931Z,99415.97
2022-12-01T04:34:43.941Z,99408.47
2022-12-01T04:37:12.521Z,99413.41
2022-12-01T04:39:42.047Z,99408.47
2022-12-01T04:42:09.688Z,99409.69
2022-12-01T04:44:36.919Z,99407.81
2022-12-01T04:47:04.831Z,99408.63
2022-12-01T04:49:32.426Z,99418.75
2022-12-01T04:51:59.417Z,99422.13
2022-12-01T04:54:27.960Z,99414.78
2022-12-01T04:56:54.882Z,99423.16
2022-12-01T04:59:21.989Z,99427.72
2022-12-01T05:01:49.150Z,99417.56
2022-12-01T05:04:17.305Z,99414.38
2022-12-01T05:06:44.296Z,99413.72
2022-12-01T05:09:17.127Z,99423.06
2022-12-01T05:11:46.001Z,99431.47
2022-12-01T05:14:12.966Z,99417.03
2022-12-01T05:16:40.123Z,99428.81
2022-12-01T05:19:25.759Z,99426.25
2022-12-01T05:21:52.769Z,99424.25
2022-12-01T05:24:21.012Z,99417.94
2022-12-01T05:26:49.552Z,99419.56
2022-12-01T05:29:16.693Z,99418.91
2022-12-01T05:31:45.613Z,99407.94
2022-12-01T05:34:12.603Z,99407.94
2022-12-01T05:36:39.677Z,99407.94
2022-12-01T05:39:06.663Z,99410.75
2022-12-01T05:41:33.614Z,99415.81
2022-12-01T05:44:01.941Z,99417.97
2022-12-01T05:46:28.879Z,99410.38
2022-12-01T05:48:55.838Z,99416.25
2022-12-01T05:51:22.829Z,99423.06
2022-12-01T05:53:50.036Z,99420.50
2022-12-01T05:56:17.023Z,99424.66
2022-12-01T05:58:44.049Z,99422.09
2022-12-01T06:01:12.372Z,99415.44
2022-12-01T06:03:39.284Z,99423.19
2022-12-01T06:06:06.346Z,99428.00
2022-12-01T06:08:33.321Z,99426.41
2022-12-01T06:11:00.449Z,99431.59
2022-12-01T06:13:27.391Z,99432.81
2022-12-01T06:15:59.119Z,99437.88
2022-12-01T06:18:28.144Z,99437.06
2022-12-01T06:20:55.263Z,99443.09
2022-12-01T06:23:26.320Z,99444.00
2022-12-01T06:25:56.025Z,99434.69
2022-12-01T06:28:22.981Z,99437.59
2022-12-01T06:30:49.977Z,99438.13
2022-12-01T06:33:16.873Z,99448.66
2022-12-01T06:35:45.409Z,99442.41
2022-12-01T06:38:12.658Z,99437.03
2022-12-01T06:40:39.706Z,99429.16
2022-12-01T06:43:06.925Z,99431.69
2022-12-01T06:45:33.964Z,99435.03
2022-12-01T06:48:00.924Z,99424.22
2022-12-01T06:50:28.079Z,99427.69
2022-12-01T06:52:59.080Z,99430.09
2022-12-01T06:55:26.479Z,99424.22
2022-12-01T06:57:53.609Z,99420.22
2022-12-01T07:00:21.577Z,99417.81
2022-12-01T07:02:48.550Z,99425.44
2022-12-01T07:05:15.699Z,99432.25
2022-12-01T07:07:42.724Z,99432.25
2022-12-01T07:10:12.788Z,99433.97
2022-12-01T07:12:40.236Z,99444.13
2022-12-01T07:15:09.077Z,99423.69
2022-12-01T07:17:36.606Z,99442.41
2022-12-01T07:20:04.189Z,99432.25
2022-12-01T07:22:32.966Z,99423.97
2022-12-01T07:25:00.200Z,99425.56
2022-12-01T07:27:31.139Z,99427.97
2022-12-01T07:29:58.247Z,99429.19
2022-12-01T07:32:25.160Z,99426.78
2022-12-01T07:34:52.368Z,99428.50
2022-12-01T07:37:19.304Z,99426.41
2022-12-01T07:39:46.360Z,99417.16
2022-12-01T07:42:13.466Z,99425.44
2022-12-01T07:44:41.777Z,99431.97
2022-12-01T07:47:08.793Z,99426.78
2022-12-01T07:49:35.740Z,99434.25
2022-12-01T07:52:02.852Z,99430.63
2022-12-01T07:54:29.819Z,99435.72
2022-12-01T07:56:56.753Z,99434.78
2022-12-01T07:59:23.713Z,99433.31
2022-12-01T08:01:52.035Z,99428.91
2022-12-01T08:04:19.126Z,99424.50
2022-12-01T08:06:46.080Z,99425.28
2022-12-01T08:09:12.982Z,99426.88
2022-12-01T08:11:39.895Z,99426.88
2022-12-01T08:14:06.859Z,99420.75
2022-12-01T08:16:33.882Z,99423.69
2022-12-01T08:19:02.182Z,99424.50
2022-12-01T08:21:29.193Z,99414.63
2022-12-01T08:23:57.416Z,99420.50
2022-12-01T08:26:25.901Z,99430.78
2022-12-01T08:28:53.008Z,99428.09
2022-12-01T08:31:23.380Z,99437.31
2022-12-01T08:33:51.352Z,99429.03
2022-12-01T08:36:21.531Z,99421.31
2022-12-01T08:38:49.965Z,99424.91
2022-12-01T08:41:17.386Z,99413.97
2022-12-01T08:44:01.225Z,99412.25
2022-12-01T08:46:31.941Z,99416.00
2022-12-01T08:48:59.232Z,99423.44
2022-12-01T08:51:28.320Z,99412.50
2022-12-01T08:53:57.523Z,99413.28
2022-12-01T08:56:27.029Z,99414.09
2022-12-01T08:58:54.389Z,99404.50
2022-12-01T09:01:22.211Z,99409.56
2022-12-01T09:03:49.201Z,99406.91
2022-12-01T09:06:20.296Z,99408.47
2022-12-01T09:08:48.945Z,99405.28
2022-12-01T09:11:19.346Z,99394.22
2022-12-01T09:13:52.930Z,99394.84
2022-12-01T09:16:21.902Z,99400.47
2022-12-01T09:18:49.116Z,99410.06
2022-12-01T09:21:17.732Z,99392.19
2022-12-01T09:23:44.909Z,99389.50
2022-12-01T09:26:18.100Z,99397.81
2022-12-01T09:28:45.401Z,99394.31
2022-12-01T09:31:13.189Z,99401.78
2022-12-01T09:33:40.453Z,99391.66
2022-12-01T09:36:10.486Z,99402.88
2022-12-01T09:38:38.501Z,99407.63
2022-12-01T09:41:08.200Z,99399.13
2022-12-01T09:43:41.476Z,99394.69
2022-12-01T09:46:14.245Z,99387.22
2022-12-01T09:48:45.317Z,99392.41
2022-12-01T09:51:14.529Z,99392.16
2022-12-01T09:53:43.057Z,99381.09
2022-12-01T09:56:19.920Z,99380.13
2022-12-01T09:58:51.543Z,99377.59
2022-12-01T10:01:25.860Z,99383.34
2022-12-01T10:03:57.830Z,99376.94
2022-12-01T10:06:31.246Z,99372.00
2022-12-01T10:09:22.138Z,99368.94
2022-12-01T10:11:53.136Z,99365.88
2022-12-01T10:14:22.160Z,99361.47
2022-12-01T10:17:01.477Z,99352.16
2022-12-01T10:19:36.104Z,99348.38
2022-12-01T10:22:20.156Z,99355.31
2022-12-01T10:24:54.801Z,99350.38
2022-12-01T10:27:34.609Z,99358.53
2022-12-01T10:30:08.515Z,99359.97
2022-12-01T10:32:44.953Z,99347.16
2022-12-01T10:35:15.452Z,99344.91
2022-12-01T10:37:45.403Z,99344.91
2022-12-01T10:40:14.133Z,99346.22
2022-12-01T10:42:42.736Z,99345.13
2022-12-01T10:45:16.384Z,99335.16
2022-12-01T10:48:08.357Z,99335.28
2022-12-01T10:50:36.044Z,99334.97
2022-12-01T10:53:04.073Z,99329.50
2022-12-01T10:55:33.799Z,99329.78
2022-12-01T10:58:09.313Z,99329.91
2022-12-01T11:03:30.167Z,99334.84
2022-12-01T11:05:59.650Z,99333.78
2022-12-01T11:08:33.853Z,99338.06
2022-12-01T11:11:01.853Z,99327.91
2022-12-01T11:13:31.239Z,99325.22
2022-12-01T11:16:01.863Z,99330.31
2022-12-01T11:18:33.089Z,99333.34
2022-12-01T11:21:09.887Z,99331.47
2022-12-01T11:23:38.836Z,99341.09
2022-12-01T11:26:11.689Z,99334.28
2022-12-01T11:28:50.684Z,99340.03
2022-12-01T11:31:20.711Z,99331.47
2022-12-01T11:33:52.257Z,99330.94
2022-12-01T11:36:26.476Z,99334.16
2022-12-01T11:38:57.801Z,99332.44
2022-12-01T11:41:32.938Z,99329.63
2022-12-01T11:44:04.118Z,99331.06
2022-12-01T11:46:50.105Z,99326.75
2022-12-01T11:49:19.842Z,99323.31
2022-12-01T11:51:46.770Z,99323.94
2022-12-01T11:54:16.419Z,99327.97
2022-12-01T11:56:44.772Z,99319.25
2022-12-01T11:59:15.366Z,99321.13
2022-12-01T12:01:55.928Z,99322.91
2022-12-01T12:04:42.782Z,99315.28
2022-12-01T12:07:19.299Z,99323.31
2022-12-01T12:10:03.033Z,99322.63
2022-12-01T12:12:45.969Z,99328.66
2022-12-01T12:15:21.901Z,99327.34
2022-12-01T12:18:19.116Z,99329.63
2022-12-01T12:20:57.615Z,99329.63
2022-12-01T12:24:11.777Z,99327.06
2022-12-01T12:26:45.144Z,99330.38
2022-12-01T12:29:22.113Z,99331.47
2022-12-01T12:32:03.437Z,99329.34
2022-12-01T12:34:47.073Z,99317.63
2022-12-01T12:37:21.185Z,99325.09
2022-12-01T12:40:17.803Z,99329.22
2022-12-01T12:42:54.932Z,99334.16
2022-12-01T12:45:28.100Z,99330.66
2022-12-01T12:48:21.175Z,99324.22
2022-12-01T12:50:57.946Z,99326.13
2022-12-01T12:53:35.968Z,99328.16
2022-12-01T12:56:07.802Z,99327.22
2022-12-01T12:58:37.736Z,99316.19
2022-12-01T13:01:09.508Z,99314.00
2022-12-01T13:03:45.689Z,99310.53
2022-12-01T13:06:19.370Z,99319.34
2022-12-01T13:08:50.387Z,99304.59
2022-12-01T13:11:22.408Z,99320.97
2022-12-01T13:13:57.452Z,99325.84
2022-12-01T13:16:29.867Z,99323.53
2022-12-01T13:19:07.334Z,99323.66
2022-12-01T13:21:39.766Z,99322.66
2022-12-01T13:24:08.115Z,99311.97
2022-12-01T13:26:37.337Z,99310.91
2022-12-01T13:29:07.652Z,99314.38
2022-12-01T13:31:43.933Z,99313.75
2022-12-01T13:34:21.061Z,99312.88
2022-12-01T13:36:51.902Z,99310.19
2022-12-01T13:39:21.213Z,99320.34
2022-12-01T13:41:58.739Z,99310.38
2022-12-01T13:44:28.434Z,99317.78
2022-12-01T13:47:01.070Z,99314.09
2022-12-01T13:49:42.625Z,99326.19
2022-12-01T13:52:28.926Z,99325.47
2022-12-01T13:55:19.018Z,99333.25
2022-12-01T13:57:49.221Z,99338.09
2022-12-01T14:00:25.038Z,99338.47
2022-12-01T14:03:29.319Z,99329.09
2022-12-01T14:06:05.884Z,99337.53
2022-12-01T14:08:37.856Z,99334.56
2022-12-01T14:11:07.338Z,99338.56
2022-12-01T14:13:46.901Z,99340.16
2022-12-01T14:16:13.999Z,99329.69
2022-12-01T14:18:44.316Z,99321.72
2022-12-01T14:21:12.640Z,99328.41
2022-12-01T14:23:59.721Z,99314.25
2022-12-01T14:26:29.439Z,99305.81
2022-12-01T14:29:30.344Z,99310.25
2022-12-01T14:32:24.528Z,99309.59
2022-12-01T14:35:10.374Z,99299.34
2022-12-01T14:37:45.527Z,99318.06
2022-12-01T14:40:28.778Z,99318.16
2022-12-01T14:43:16.027Z,99314.50
2022-12-01T14:45:51.153Z,99324.19
2022-12-01T14:48:25.385Z,99325.03
2022-12-01T14:50:55.651Z,99326.41
2022-12-01T14:53:25.840Z,99328.41
2022-12-01T14:55:56.497Z,99326.19
2022-12-01T14:58:26.414Z,99324.06
2022-12-01T15:00:59.458Z,99332.63
2022-12-01T15:03:32.080Z,99325.91
2022-12-01T15:05:59.412Z,99327.81
2022-12-01T15:08:58.438Z,99331.41
2022-12-01T15:11:23.069Z,99339.16
2022-12-01T15:13:51.681Z,99338.50
2022-12-01T15:16:20.931Z,99342.13
2022-12-01T15:18:48.067Z,99348.25
2022-12-01T15:21:20.673Z,99340.00
2022-12-01T15:23:56.434Z,99336.81
2022-12-01T15:26:27.278Z,99344.41
2022-12-01T15:29:16.259Z,99335.88
2022-12-01T15:31:44.759Z,99342.53
2022-12-01T15:34:16.039Z,99340.00
2022-12-01T15:36:43.936Z,99342.53
2022-12-01T15:39:15.422Z,99341.88
2022-12-01T15:41:45.696Z,99335.59
2022-12-01T15:44:21.394Z,99334.53
2022-12-01T15:46:48.840Z,99335.31
2022-12-01T15:49:21.467Z,99320.22
2022-12-01T15:51:52.077Z,99325.44
2022-12-01T15:54:21.452Z,99333.03
2022-12-01T15:56:54.928Z,99323.72
2022-12-01T15:59:31.025Z,99329.88
2022-12-01T16:01:58.605Z,99325.88
2022-12-01T16:04:28.182Z,99330.41
2022-12-01T16:06:59.215Z,99331.34
2022-12-01T16:09:30.101Z,99331.34
2022-12-01T16:12:18.195Z,99339.91
2022-12-01T16:14:50.768Z,99335.47
2022-12-01T16:17:18.031Z,99339.59
2022-12-01T16:19:45.601Z,99342.00
2022-12-01T16:22:16.812Z,99351.38
2022-12-01T16:24:46.813Z,99355.22
2022-12-01T16:27:21.498Z,99352.81
2022-12-01T16:29:53.220Z,99348.44
2022-12-01T16:32:23.225Z,99349.34
2022-12-01T16:34:52.578Z,99351.09
2022-12-01T16:37:21.584Z,99347.75
2022-12-01T16:39:48.620Z,99347.88
2022-12-01T16:42:17.788Z,99351.38
2022-12-01T16:44:46.661Z,99356.19
2022-12-01T16:47:15.446Z,99351.75
2022-12-01T16:49:42.710Z,99361.88
2022-12-01T16:55:00.662Z,99364.69
2022-12-01T16:57:27.935Z,99363.09
2022-12-01T16:59:56.187Z,99360.44
2022-12-01T17:02:23.180Z,99371.53
2022-12-01T17:04:50.363Z,99373.25
2022-12-01T17:07:17.485Z,99376.59
2022-12-01T17:09:44.452Z,99376.47
2022-12-01T17:12:11.408Z,99371.09
2022-12-01T17:14:38.353Z,99371.25
2022-12-01T17:17:06.713Z,99377.91
2022-12-01T17:19:33.714Z,99371.75
2022-12-01T17:22:00.669Z,99375.25
2022-12-01T17:24:27.673Z,99386.97
2022-12-01T17:26:54.585Z,99378.41
2022-12-01T17:29:22.126Z,99386.84
2022-12-01T17:31:49.108Z,99391.91
2022-12-01T17:34:17.498Z,99396.19
2022-12-01T17:36:44.557Z,99388.72
2022-12-01T17:39:11.503Z,99398.34
2022-12-01T17:41:42.125Z,99401.00
2022-12-01T17:44:09.092Z,99401.81
2022-12-01T17:46:37.308Z,99401.81
2022-12-01T17:49:09.351Z,99403.41
2022-12-01T17:51:38.539Z,99404.88
2022-12-01T17:54:05.576Z,99405.69
2022-12-01T17:56:32.827Z,99404.72
2022-12-01T17:58:59.850Z,99402.47
2022-12-01T18:01:30.440Z,99399.78
2022-12-01T18:03:58.890Z,99400.75
2022-12-01T18:06:26.972Z,99402.47
2022-12-01T18:08:57.446Z,99397.41
2022-12-01T18:11:24.481Z,99397.41
2022-12-01T18:13:52.261Z,99408.47
2022-12-01T18:16:21.363Z,99394.84
2022-12-01T18:18:49.085Z,99401.53
2022-12-01T18:21:18.228Z,99399.94
2022-12-01T18:23:49.836Z,99402.59
2022-12-01T18:26:20.539Z,99405.94
2022-12-01T18:28:47.957Z,99411.97
2022-12-01T18:31:16.123Z,99406.75
2022-12-01T18:33:44.626Z,99404.06
2022-12-01T18:36:14.198Z,99403.13
2022-12-01T18:38:41.565Z,99402.47
2022-12-01T18:41:08.847Z,99402.47
2022-12-01T18:43:37.259Z,99407.69
2022-12-01T18:46:05.290Z,99408.47
2022-12-01T18:48:33.464Z,99409.28
2022-12-01T18:51:02.919Z,99415.16
2022-12-01T18:53:30.069Z,99407.81
2022-12-01T18:55:57.207Z,99419.72
2022-12-01T18:58:24.141Z,99411.44
2022-12-01T19:00:52.513Z,99423.44
2022-12-01T19:03:19.552Z,99428.00
2022-12-01T19:05:46.921Z,99424.66
2022-12-01T19:08:14.036Z,99420.66
2022-12-01T19:10:41.047Z,99420.50
2022-12-01T19:13:08.218Z,99419.44
2022-12-01T19:15:36.933Z,99413.59
2022-12-01T19:18:05.493Z,99423.72
2022-12-01T19:20:32.508Z,99418.66
2022-12-01T19:22:59.780Z,99416.78
2022-12-01T19:25:27.243Z,99412.38
2022-12-01T19:27:54.202Z,99423.28
2022-12-01T19:30:21.313Z,99419.44
2022-12-01T19:32:48.263Z,99409.28
2022-12-01T19:35:16.636Z,99417.84
2022-12-01T19:37:43.743Z,99421.97
2022-12-01T19:40:11.828Z,99421.19
2022-12-01T19:42:38.801Z,99419.44
2022-12-01T19:45:06.789Z,99415.03
2022-12-01T19:47:34.891Z,99413.16
2022-12-01T19:50:02.186Z,99422.50
2022-12-01T19:52:30.547Z,99410.63
2022-12-01T19:54:57.835Z,99416.38
2022-12-01T19:57:24.750Z,99413.81
2022-12-01T19:59:51.687Z,99409.56
2022-12-01T20:02:22.991Z,99406.75
2022-12-01T20:04:53.143Z,99403.41
2022-12-01T20:07:20.090Z,99400.88
2022-12-01T20:09:50.214Z,99406.09
2022-12-01T20:12:17.571Z,99401.81
2022-12-01T20:14:44.621Z,99406.75
2022-12-01T20:17:15.673Z,99401.00
2022-12-01T20:19:43.012Z,99406.22
2022-12-01T20:22:10.065Z,99402.09
2022-12-01T20:24:39.587Z,99407.03
2022-12-01T20:27:08.573Z,99399.41
2022-12-01T20:29:35.746Z,99406.91
2022-12-01T20:32:03.591Z,99408.47
2022-12-01T20:34:32.774Z,99410.88
2022-12-01T20:37:00.489Z,99405.69
2022-12-01T20:39:31.399Z,99410.63
2022-12-01T20:41:58.389Z,99412.34
2022-12-01T20:44:27.118Z,99403.13
2022-12-01T20:46:54.117Z,99414.88
2022-12-01T20:49:21.069Z,99410.47
2022-12-01T20:51:48.432Z,99412.06
2022-12-01T20:54:27.900Z,99415.56
2022-12-01T20:56:55.631Z,99409.66
2022-12-01T20:59:22.673Z,99408.72
2022-12-01T21:01:51.046Z,99406.06
2022-12-01T21:04:18.262Z,99400.19
2022-12-01T21:06:45.421Z,99403.50
2022-12-01T21:09:13.312Z,99409.41
2022-12-01T21:12:03.930Z,99404.19
2022-12-01T21:14:35.735Z,99399.38
2022-12-01T21:17:11.232Z,99407.00
2022-12-01T21:19:45.420Z,99402.88
2022-12-01T21:22:13.346Z,99407.94
2022-12-01T21:24:43.998Z,99400.34
2022-12-01T21:27:13.959Z,99407.00
2022-12-01T21:29:43.771Z,99406.31
2022-12-01T21:32:14.980Z,99408.22
2022-12-01T21:34:42.250Z,99408.34
2022-12-01T21:37:18.886Z,99408.47
2022-12-01T21:39:48.373Z,99421.16
2022-12-01T21:42:18.659Z,99413.56
2022-12-01T21:44:45.841Z,99411.03
2022-12-01T21:47:18.896Z,99419.44
2022-12-01T21:49:47.741Z,99422.75
2022-12-01T21:52:18.711Z,99414.38
2022-12-01T21:54:46.093Z,99411.53
2022-12-01T21:57:31.530Z,99414.88
2022-12-01T22:00:08.846Z,99409.00
2022-12-01T22:02:48.889Z,99408.22
2022-12-01T22:05:32.973Z,99419.00
2022-12-01T22:08:15.360Z,99408.72
2022-12-01T22:10:54.119Z,99404.47
2022-12-01T22:13:24.870Z,99411.94
2022-12-01T22:15:53.409Z,99413.78
2022-12-01T22:18:24.360Z,99407.00
2022-12-01T22:20:51.540Z,99412.22
2022-12-01T22:23:19.083Z,99414.59
2022-12-01T22:25:47.525Z,99417.00
2022-12-01T22:28:18.097Z,99410.19
2022-12-01T22:30:46.061Z,99411.00
2022-12-01T22:33:19.080Z,99406.59
2022-12-01T22:35:49.326Z,99410.72
2022-12-01T22:38:32.565Z,99407.38
2022-12-01T22:41:04.029Z,99401.53
2022-12-01T22:43:48.361Z,99406.47
2022-12-01T22:46:30.962Z,99400.44
2022-12-01T22:49:00.126Z,99400.31
2022-12-01T22:51:38.086Z,99401.25
2022-12-01T22:54:34.214Z,99397.75
2022-12-01T22:57:13.544Z,99394.41
2022-12-01T22:59:42.349Z,99396.03
2022-12-01T23:02:20.586Z,99394.41
2022-12-01T23:04:50.019Z,99393.50
2022-12-01T23:07:30.810Z,99390.16
2022-12-01T23:10:04.623Z,99386.81
2022-12-01T23:12:33.940Z,99383.63
2022-12-01T23:15:14.913Z,99381.09
2022-12-01T23:17:41.863Z,99378.41
2022-12-01T23:20:28.980Z,99380.13
2022-12-01T23:22:59.035Z,99381.88
2022-12-01T23:25:27.457Z,99378.56
2022-12-01T23:27:58.162Z,99384.41
2022-12-01T23:30:25.573Z,99371.84
2022-12-01T23:33:14.473Z,99383.63
2022-12-01T23:35:46.402Z,99378.69
2022-12-01T23:38:20.255Z,99382.94
2022-12-01T23:40:47.643Z,99383.63
2022-12-01T23:43:19.760Z,99390.28
2022-12-01T23:45:48.162Z,99381.72
2022-12-01T23:48:20.459Z,99383.34
2022-12-01T23:50:50.878Z,99384.28
2022-12-01T23:53:26.598Z,99387.75
2022-12-01T23:55:53.759Z,99391.88
2022-12-01T23:58:20.796Z,99386.81
